Time;durP1;ratioP1;P1;durP2;ratioP2;P2;SDS_P1;SDS_P2;PMS_P1;PMS_P2;Temp;Humidity;BMP_temperature;BMP_pressure;BME280_temperature;BME280_humidity;BME280_pressure;Samples;Min_cycle;Max_cycle;Signal;HPM_P1;HPM_P2
2024/05/03 00:03:27;;;;;;;5.18;3.70;;;18.20;99.90;;;;;;10857260;27;20536;-85
2024/05/03 00:08:49;;;;;;;6.05;3.88;;;18.20;99.90;;;;;;10835819;27;20234;-86
2024/05/03 00:14:10;;;;;;;7.53;3.25;;;18.10;99.90;;;;;;10856852;27;20269;-86
2024/05/03 00:19:32;;;;;;;6.53;3.55;;;18.10;99.90;;;;;;10859496;27;20248;-86
2024/05/03 00:24:53;;;;;;;7.45;3.70;;;18.00;99.90;;;;;;10832342;27;20277;-85
2024/05/03 00:30:14;;;;;;;8.60;4.28;;;18.00;99.90;;;;;;10855928;27;20248;-86
2024/05/03 00:35:36;;;;;;;9.10;3.70;;;17.90;99.90;;;;;;10855789;27;20238;-86
2024/05/03 00:40:58;;;;;;;11.27;4.25;;;17.80;99.90;;;;;;10827265;27;20313;-85
2024/05/03 00:46:21;;;;;;;8.85;3.22;;;18.00;1.00;;;;;;10814721;27;20218;-85
2024/05/03 00:51:45;;;;;;;11.32;3.70;;;17.80;17.30;;;;;;10852305;27;20250;-86
2024/05/03 00:57:08;;;;;;;10.35;4.03;;;17.70;1.00;;;;;;10855198;27;20222;-87
2024/05/03 01:02:30;;;;;;;12.45;4.82;;;17.50;99.90;;;;;;10853104;27;20291;-85
2024/05/03 01:07:51;;;;;;;9.82;4.80;;;17.50;99.90;;;;;;10854666;27;20233;-85
2024/05/03 01:13:12;;;;;;;13.05;4.93;;;17.40;99.90;;;;;;10853664;27;20238;-84
2024/05/03 01:18:34;;;;;;;7.85;4.28;;;17.50;1.00;;;;;;10878318;27;20218;-85
2024/05/03 01:23:56;;;;;;;5.82;3.25;;;17.40;1.00;;;;;;10829839;27;20238;-85
2024/05/03 01:29:17;;;;;;;6.97;3.15;;;17.30;1.00;;;;;;10830829;27;20438;-86
2024/05/03 01:34:38;;;;;;;5.93;3.13;;;17.10;99.90;;;;;;10783783;27;20357;-85
2024/05/03 01:40:00;;;;;;;4.32;2.75;;;17.10;99.90;;;;;;10790726;27;20310;-85
2024/05/03 01:45:21;;;;;;;3.92;2.58;;;17.10;99.90;;;;;;10877847;27;20354;-85
2024/05/03 01:50:43;;;;;;;5.70;3.08;;;17.00;99.90;;;;;;10880231;27;20319;-84
2024/05/03 01:56:05;;;;;;;6.25;3.25;;;17.00;99.90;;;;;;10878406;27;20257;-85
2024/05/03 02:01:26;;;;;;;6.32;3.60;;;16.90;99.90;;;;;;10853979;27;20285;-85
2024/05/03 02:06:48;;;;;;;5.97;3.13;;;16.90;99.90;;;;;;10859057;27;20484;-86
2024/05/03 02:12:09;;;;;;;6.53;2.65;;;16.80;99.90;;;;;;10882174;27;20289;-85
2024/05/03 02:17:31;;;;;;;4.75;3.00;;;16.80;99.90;;;;;;10859491;27;20160;-84
2024/05/03 02:22:52;;;;;;;4.63;2.95;;;16.80;99.90;;;;;;10881662;27;20328;-86
2024/05/03 02:28:14;;;;;;;3.83;2.65;;;16.70;99.90;;;;;;10858887;27;20228;-84
2024/05/03 02:33:36;;;;;;;3.35;2.55;;;;;;;;;;10811056;27;20247;-86
2024/05/03 02:38:57;;;;;;;9.30;3.05;;;16.70;99.90;;;;;;10813571;27;20261;-85
2024/05/03 02:44:19;;;;;;;3.45;2.72;;;16.70;99.90;;;;;;10875181;27;20393;-86
2024/05/03 02:49:41;;;;;;;4.00;2.50;;;16.60;99.90;;;;;;10880970;27;20257;-86
2024/05/03 02:55:02;;;;;;;4.18;2.72;;;16.60;99.90;;;;;;10853320;27;20567;-87
2024/05/03 03:00:23;;;;;;;4.28;2.33;;;16.50;99.90;;;;;;10856981;27;20234;-86
2024/05/03 03:05:45;;;;;;;4.97;2.50;;;16.50;99.90;;;;;;10811620;27;20285;-85
2024/05/03 03:11:07;;;;;;;4.05;2.67;;;16.50;99.90;;;;;;10855984;27;20253;-85
2024/05/03 03:16:32;;;;;;;3.58;2.30;;;16.40;99.90;;;;;;10830069;27;20294;-85
2024/05/03 03:21:54;;;;;;;3.83;2.63;;;16.40;99.90;;;;;;10877983;27;20288;-84
2024/05/03 03:27:15;;;;;;;7.20;2.83;;;16.40;99.90;;;;;;10834323;27;20256;-85
2024/05/03 03:32:37;;;;;;;3.88;2.47;;;16.40;99.90;;;;;;10855255;27;20281;-86
2024/05/03 03:38:00;;;;;;;4.35;2.80;;;16.40;99.90;;;;;;10857174;27;20234;-85
2024/05/03 03:43:21;;;;;;;2.70;2.40;;;16.40;99.90;;;;;;10848998;27;20242;-85
2024/05/03 03:48:43;;;;;;;5.70;2.88;;;16.40;99.90;;;;;;10856650;27;20297;-85
2024/05/03 03:54:04;;;;;;;5.38;2.67;;;16.50;99.90;;;;;;10864266;27;20355;-84
2024/05/03 03:59:26;;;;;;;5.20;2.78;;;16.50;99.90;;;;;;10828651;27;20255;-83
2024/05/03 04:04:47;;;;;;;5.07;2.38;;;16.60;99.90;;;;;;10870077;27;20287;-85
2024/05/03 04:10:09;;;;;;;4.35;2.85;;;16.60;99.90;;;;;;10855303;27;20469;-83
2024/05/03 04:15:30;;;;;;;4.65;2.85;;;16.70;99.90;;;;;;10827286;27;20301;-86
2024/05/03 04:20:52;;;;;;;4.30;2.50;;;16.70;99.90;;;;;;10830688;27;20272;-85
2024/05/03 04:26:13;;;;;;;3.08;2.55;;;16.80;99.90;;;;;;10855485;27;20256;-86
2024/05/03 04:31:41;;;;;;;4.53;2.70;;;16.80;99.90;;;;;;10877049;27;20249;-86
2024/05/03 04:37:02;;;;;;;9.23;3.67;;;16.90;99.90;;;;;;10856820;27;20508;-84
2024/05/03 04:42:24;;;;;;;6.40;3.67;;;16.90;99.90;;;;;;10855212;27;20338;-83
2024/05/03 04:47:45;;;;;;;5.72;3.60;;;16.90;99.90;;;;;;10771969;27;20264;-83
2024/05/03 04:53:07;;;;;;;5.93;3.55;;;17.00;99.90;;;;;;10875379;27;20253;-85
2024/05/03 04:58:28;;;;;;;7.32;3.80;;;17.20;99.90;;;;;;10854352;27;20233;-84
2024/05/03 05:03:52;;;;;;;6.18;3.08;;;17.30;99.90;;;;;;10801764;27;20445;-83
2024/05/03 05:09:14;;;;;;;3.75;2.60;;;17.30;99.90;;;;;;10854476;27;20271;-85
2024/05/03 05:14:35;;;;;;;6.07;3.20;;;17.40;99.90;;;;;;10794260;27;20277;-86
2024/05/03 05:19:57;;;;;;;7.20;3.28;;;17.40;99.90;;;;;;10815138;27;20348;-86
2024/05/03 05:25:18;;;;;;;10.68;3.55;;;17.50;99.90;;;;;;10835981;27;20238;-84
2024/05/03 05:30:40;;;;;;;7.22;3.28;;;17.60;99.90;;;;;;10793920;27;20355;-84
2024/05/03 05:36:01;;;;;;;4.47;2.60;;;17.80;99.90;;;;;;10832030;27;20238;-86
2024/05/03 05:41:23;;;;;;;9.20;2.80;;;17.80;99.90;;;;;;10859282;27;20230;-86
2024/05/03 05:46:45;;;;;;;5.47;3.42;;;17.90;99.90;;;;;;10884105;27;20265;-86
2024/05/03 05:52:07;;;;;;;5.72;2.33;;;18.10;99.90;;;;;;10859656;27;20298;-85
2024/05/03 05:57:30;;;;;;;4.30;3.15;;;18.30;99.90;;;;;;10860043;27;20361;-86
2024/05/03 06:02:51;;;;;;;5.72;2.92;;;18.50;99.90;;;;;;10858463;27;20250;-86
2024/05/03 06:08:13;;;;;;;6.55;3.08;;;18.50;99.90;;;;;;10836336;27;20234;-85
2024/05/03 06:13:35;;;;;;;8.45;3.28;;;18.60;99.90;;;;;;10857461;27;20253;-84
2024/05/03 06:18:57;;;;;;;6.38;2.85;;;18.80;99.90;;;;;;10832099;27;20361;-84
2024/05/03 06:24:19;;;;;;;5.85;3.22;;;19.30;99.90;;;;;;10856666;27;20246;-86
2024/05/03 06:29:41;;;;;;;4.90;2.75;;;19.80;99.90;;;;;;10882816;27;20214;-86
2024/05/03 06:35:02;;;;;;;8.32;3.10;;;20.50;99.90;;;;;;10866771;27;20274;-85
2024/05/03 06:40:24;;;;;;;9.27;3.20;;;21.30;99.90;;;;;;10854239;27;20297;-86
2024/05/03 06:45:45;;;;;;;5.70;2.55;;;21.90;99.90;;;;;;10853943;27;20336;-86
2024/05/03 06:51:07;;;;;;;7.55;3.33;;;22.60;99.90;;;;;;10807314;27;20242;-86
2024/05/03 06:56:28;;;;;;;4.70;3.08;;;23.20;99.90;;;;;;10812201;27;20243;-87
2024/05/03 07:01:50;;;;;;;9.35;3.33;;;24.10;99.90;;;;;;10799313;27;20285;-86
2024/05/03 07:07:11;;;;;;;5.15;2.75;;;24.40;99.90;;;;;;10849808;27;20239;-86
2024/05/03 07:12:33;;;;;;;5.10;3.20;;;;;;;;;;10807999;27;20465;-85
2024/05/03 07:17:57;;;;;;;4.78;2.92;;;;;;;;;;10806755;27;20318;-85
2024/05/03 07:23:18;;;;;;;6.40;2.72;;;26.00;99.90;;;;;;10851281;27;20378;-86
2024/05/03 07:28:41;;;;;;;10.23;3.30;;;26.30;99.90;;;;;;10834098;27;20226;-86
2024/05/03 07:34:02;;;;;;;3.78;2.90;;;26.70;99.90;;;;;;10878260;27;20246;-85
2024/05/03 07:39:24;;;;;;;7.70;3.38;;;27.10;99.90;;;;;;10807004;27;20222;-84
2024/05/03 07:44:45;;;;;;;6.93;3.15;;;27.60;99.90;;;;;;10842317;27;20481;-85
2024/05/03 07:50:07;;;;;;;5.45;3.13;;;27.70;99.90;;;;;;10856575;27;20473;-86
2024/05/03 07:55:29;;;;;;;6.57;3.03;;;;;;;;;;10857194;27;20392;-87
2024/05/03 08:00:52;;;;;;;7.40;2.92;;;28.20;99.90;;;;;;10834421;27;20194;-85
2024/05/03 08:06:14;;;;;;;3.80;2.67;;;28.70;99.90;;;;;;10826372;27;20548;-86
2024/05/03 08:11:35;;;;;;;6.07;2.78;;;28.80;99.90;;;;;;10832717;27;20238;-86
2024/05/03 08:16:57;;;;;;;6.18;2.25;;;28.80;99.90;;;;;;10719430;27;20233;-85
2024/05/03 08:22:19;;;;;;;5.25;2.40;;;29.10;99.90;;;;;;10730694;27;20327;-85
2024/05/03 08:27:40;;;;;;;2.70;2.42;;;29.20;99.90;;;;;;10783097;27;20282;-86
2024/05/03 08:33:03;;;;;;;8.70;2.47;;;29.70;99.90;;;;;;10812544;27;20332;-85
2024/05/03 08:38:27;;;;;;;4.88;2.00;;;29.40;99.90;;;;;;10763969;27;20243;-84
2024/05/03 08:44:22;;;;;;;7.03;2.13;;;29.80;99.90;;;;;;10806534;27;20254;-85
2024/05/03 08:50:04;;;;;;;3.75;2.13;;;29.40;99.90;;;;;;10807278;27;20239;-85
2024/05/03 08:55:25;;;;;;;3.25;2.13;;;29.70;99.90;;;;;;10809467;27;20262;-86
2024/05/03 09:00:49;;;;;;;4.32;2.17;;;;;;;;;;10795044;27;20282;-87
2024/05/03 09:06:12;;;;;;;7.03;2.22;;;30.80;1.00;;;;;;10743171;27;20282;-86
2024/05/03 09:11:37;;;;;;;4.70;2.35;;;30.70;1.00;;;;;;10744370;27;20267;-86
2024/05/03 09:16:59;;;;;;;6.63;3.13;;;31.10;99.90;;;;;;10716755;27;20233;-86
2024/05/03 09:22:21;;;;;;;6.75;2.78;;;31.20;99.90;;;;;;10713615;27;20252;-86
2024/05/03 09:27:43;;;;;;;2.83;1.92;;;31.40;99.90;;;;;;10738155;27;20356;-86
2024/05/03 09:33:05;;;;;;;8.93;2.10;;;31.30;99.90;;;;;;10716990;27;20259;-85
2024/05/03 09:38:27;;;;;;;4.10;1.92;;;31.40;99.90;;;;;;10738480;27;20276;-85
2024/05/03 09:43:49;;;;;;;3.47;1.95;;;;;;;;;;10743779;27;20240;-87
2024/05/03 09:49:13;;;;;;;5.30;2.38;;;;;;;;;;10707581;27;20438;-85
2024/05/03 09:54:58;;;;;;;4.80;2.30;;;32.00;99.90;;;;;;10718174;27;20475;-86
2024/05/03 10:00:20;;;;;;;6.70;1.90;;;31.90;99.90;;;;;;10765506;27;20243;-86
2024/05/03 10:05:44;;;;;;;9.02;2.17;;;32.00;99.90;;;;;;10722480;27;20255;-86
2024/05/03 10:11:06;;;;;;;5.75;2.20;;;31.70;99.90;;;;;;10742678;27;20252;-86
2024/05/03 10:16:28;;;;;;;2.00;1.83;;;31.90;99.90;;;;;;10721458;27;20244;-85
2024/05/03 10:21:50;;;;;;;4.25;2.08;;;32.30;1.00;;;;;;10748587;27;20244;-86
2024/05/03 10:27:11;;;;;;;6.15;2.03;;;31.70;99.90;;;;;;10744222;27;20278;-86
2024/05/03 10:32:33;;;;;;;2.25;2.00;;;31.60;1.00;;;;;;10744798;27;20246;-86
2024/05/03 10:38:02;;;;;;;4.28;1.88;;;31.60;1.00;;;;;;10747287;27;20248;-86
2024/05/03 10:43:23;;;;;;;2.90;1.80;;;32.10;99.90;;;;;;10748758;27;20240;-85
2024/05/03 10:48:44;;;;;;;4.38;2.35;;;32.40;99.90;;;;;;10746991;27;20266;-86
2024/05/03 10:54:07;;;;;;;11.02;2.72;;;32.40;99.90;;;;;;10654250;27;20229;-86
2024/05/03 10:59:29;;;;;;;3.78;2.10;;;;;;;;;;10736330;27;20232;-86
2024/05/03 11:04:50;;;;;;;4.03;2.37;;;32.40;99.90;;;;;;10748210;27;1197907;-87
2024/05/03 11:10:14;;;;;;;2.92;1.80;;;31.90;99.90;;;;;;10795278;27;20625;-86
2024/05/03 11:15:36;;;;;;;2.83;1.80;;;31.60;99.90;;;;;;10743909;27;20232;-86
2024/05/03 11:21:02;;;;;;;4.47;2.10;;;31.80;99.90;;;;;;10773412;27;20246;-86
2024/05/03 11:26:25;;;;;;;3.20;1.80;;;31.90;99.90;;;;;;10812943;27;20285;-86
2024/05/03 11:31:46;;;;;;;7.57;2.20;;;32.30;99.90;;;;;;10786646;27;20263;-85
2024/05/03 11:37:08;;;;;;;4.97;2.10;;;32.00;99.90;;;;;;10815817;27;20257;-86
2024/05/03 11:42:29;;;;;;;4.72;1.73;;;32.20;99.90;;;;;;10813489;27;20389;-85
2024/05/03 11:47:51;;;;;;;4.95;2.00;;;32.30;99.90;;;;;;10815435;27;20263;-85
2024/05/03 11:53:13;;;;;;;2.72;1.85;;;32.30;99.90;;;;;;10782085;27;20240;-84
2024/05/03 11:58:34;;;;;;;4.88;2.20;;;32.20;99.90;;;;;;10754755;27;20227;-85
2024/05/03 12:03:58;;;;;;;5.78;1.90;;;32.10;99.90;;;;;;10757976;27;20302;-85
2024/05/03 12:09:19;;;;;;;9.70;2.33;;;32.10;99.90;;;;;;10850933;27;20242;-84
2024/05/03 12:14:41;;;;;;;5.70;1.90;;;31.70;99.90;;;;;;10879311;27;20300;-85
2024/05/03 12:20:06;;;;;;;3.80;1.83;;;31.50;99.90;;;;;;10877522;27;20333;-84
2024/05/03 12:25:28;;;;;;;2.78;1.30;;;31.30;99.90;;;;;;10809583;27;20276;-85
2024/05/03 12:30:50;;;;;;;5.80;1.80;;;31.00;99.90;;;;;;10854294;27;20276;-85
2024/05/03 12:36:12;;;;;;;7.32;1.60;;;31.40;99.90;;;;;;10831969;27;20226;-84
2024/05/03 12:41:33;;;;;;;6.53;2.00;;;31.30;99.90;;;;;;10830306;27;20419;-85
2024/05/03 12:46:54;;;;;;;4.32;1.50;;;31.40;99.90;;;;;;10877507;27;20552;-85
2024/05/03 12:52:16;;;;;;;4.65;1.40;;;31.20;99.90;;;;;;10825056;27;20272;-85
2024/05/03 12:57:40;;;;;;;3.85;1.65;;;30.70;99.90;;;;;;10826876;27;20234;-85
2024/05/03 13:03:02;;;;;;;4.10;2.13;;;30.50;99.90;;;;;;10828469;27;20242;-85
2024/05/03 13:08:23;;;;;;;13.23;1.77;;;30.50;99.90;;;;;;10854092;27;20242;-85
2024/05/03 13:13:45;;;;;;;4.43;1.50;;;30.40;99.90;;;;;;10829213;27;20301;-85
2024/05/03 13:19:06;;;;;;;1.77;1.50;;;30.40;99.90;;;;;;10852665;27;20381;-84
2024/05/03 13:24:28;;;;;;;2.95;1.55;;;30.20;99.90;;;;;;10876817;27;20284;-85
2024/05/03 13:29:49;;;;;;;6.78;1.50;;;30.20;99.90;;;;;;10818601;27;20284;-85
2024/05/03 13:35:11;;;;;;;7.47;1.88;;;30.30;99.90;;;;;;10857990;27;20234;-85
2024/05/03 13:40:32;;;;;;;6.38;1.88;;;30.20;99.90;;;;;;10858530;27;20246;-85
2024/05/03 13:45:53;;;;;;;6.30;1.65;;;30.30;99.90;;;;;;10880968;27;20294;-85
2024/05/03 13:51:15;;;;;;;6.63;1.30;;;30.40;99.90;;;;;;10854913;27;20364;-85
2024/05/03 13:56:37;;;;;;;4.38;1.70;;;29.80;99.90;;;;;;10880939;27;20312;-85
2024/05/03 14:01:59;;;;;;;3.55;1.38;;;29.80;99.90;;;;;;10858949;27;20250;-85
2024/05/03 14:07:21;;;;;;;8.23;1.40;;;29.70;99.90;;;;;;10881176;27;20265;-85
2024/05/03 14:12:42;;;;;;;2.58;1.67;;;29.20;99.90;;;;;;10809917;27;20347;-85
2024/05/03 14:18:06;;;;;;;4.80;1.73;;;29.10;99.90;;;;;;10820000;27;20264;-84
2024/05/03 14:23:28;;;;;;;3.95;1.33;;;29.00;99.90;;;;;;10882148;27;20253;-85
2024/05/03 14:28:49;;;;;;;2.45;1.00;;;28.80;99.90;;;;;;10849637;27;20249;-83
2024/05/03 14:34:11;;;;;;;2.95;1.50;;;28.50;99.90;;;;;;10853983;27;20304;-85
2024/05/03 14:39:32;;;;;;;3.50;1.58;;;28.20;99.90;;;;;;10856342;27;20249;-85
2024/05/03 14:44:54;;;;;;;6.78;1.40;;;28.10;99.90;;;;;;10857618;27;20462;-84
2024/05/03 14:50:15;;;;;;;2.35;1.33;;;28.00;99.90;;;;;;10852150;27;20261;-86
2024/05/03 14:55:37;;;;;;;11.20;2.15;;;28.10;99.90;;;;;;10829821;27;20420;-86
2024/05/03 15:00:58;;;;;;;4.07;1.10;;;28.20;99.90;;;;;;10829834;27;20259;-85
2024/05/03 15:06:20;;;;;;;4.53;1.92;;;27.80;99.90;;;;;;10819174;27;20273;-85
2024/05/03 15:11:44;;;;;;;4.55;1.10;;;27.70;99.90;;;;;;10834123;27;20512;-85
2024/05/03 15:17:06;;;;;;;5.40;1.27;;;27.70;99.90;;;;;;10851271;27;20259;-85
2024/05/03 15:22:28;;;;;;;2.08;1.40;;;27.60;99.90;;;;;;10880027;27;20297;-85
2024/05/03 15:27:51;;;;;;;3.50;1.30;;;27.40;99.90;;;;;;10852433;27;20227;-85
2024/05/03 15:33:13;;;;;;;4.45;1.40;;;;;;;;;;10845980;27;20337;-85
2024/05/03 15:38:35;;;;;;;4.55;1.15;;;27.10;99.90;;;;;;10880882;27;20219;-85
2024/05/03 15:43:56;;;;;;;5.28;1.13;;;27.10;99.90;;;;;;10878846;27;20333;-85
2024/05/03 15:49:19;;;;;;;2.35;1.00;;;27.00;99.90;;;;;;10880023;27;20251;-86
2024/05/03 15:54:41;;;;;;;5.47;1.30;;;26.80;99.90;;;;;;10839502;27;20276;-85
2024/05/03 16:00:03;;;;;;;5.78;2.42;;;26.70;99.90;;;;;;10823293;27;20226;-85
2024/05/03 16:05:25;;;;;;;9.63;2.33;;;26.60;99.90;;;;;;10754348;27;20543;-85
2024/05/03 16:16:55;;;;;;;5.78;1.80;;;26.50;99.90;;;;;;10675167;27;20484;-84
2024/05/03 16:22:16;;;;;;;3.38;1.52;;;26.30;99.90;;;;;;10689017;27;20270;-85
2024/05/03 16:27:40;;;;;;;8.02;1.92;;;;;;;;;;10741600;27;20315;-84
2024/05/03 16:33:01;;;;;;;4.78;2.30;;;26.00;99.90;;;;;;10764643;27;20576;-83
2024/05/03 16:38:23;;;;;;;5.70;2.15;;;;;;;;;;10695887;27;20244;-85
2024/05/03 16:43:45;;;;;;;5.22;2.00;;;;;;;;;;10718068;27;20524;-85
2024/05/03 16:49:07;;;;;;;3.03;1.98;;;;;;;;;;10718781;27;20259;-84
2024/05/03 16:54:29;;;;;;;4.18;2.30;;;;;;;;;;10740554;27;20430;-85
2024/05/03 16:59:51;;;;;;;7.38;2.30;;;;;;;;;;10711026;27;20284;-84
2024/05/03 17:05:15;;;;;;;7.53;2.00;;;;;;;;;;10730555;27;20363;-85
2024/05/03 17:10:37;;;;;;;3.13;1.90;;;;;;;;;;10739167;27;20240;-85
2024/05/03 17:15:59;;;;;;;5.10;2.25;;;25.50;1.00;;;;;;10672073;27;20252;-84
2024/05/03 17:21:20;;;;;;;5.03;1.83;;;25.30;99.90;;;;;;10739800;27;20545;-83
2024/05/03 17:26:42;;;;;;;3.75;2.00;;;25.20;99.90;;;;;;10740204;27;20228;-86
2024/05/03 17:32:03;;;;;;;3.22;1.70;;;25.00;99.90;;;;;;10739022;27;20240;-86
2024/05/03 17:37:25;;;;;;;5.22;2.53;;;24.90;99.90;;;;;;10740607;27;20262;-85
2024/05/03 17:42:47;;;;;;;6.72;3.40;;;24.80;99.90;;;;;;10715943;27;20371;-86
2024/05/03 17:48:08;;;;;;;7.75;3.22;;;24.80;1.00;;;;;;10717369;27;20216;-88
2024/05/03 17:53:30;;;;;;;4.75;3.05;;;24.60;99.90;;;;;;10692624;27;20270;-86
2024/05/03 17:58:51;;;;;;;6.63;3.00;;;24.50;99.90;;;;;;10718572;27;20249;-87
2024/05/03 18:04:13;;;;;;;6.72;3.25;;;24.40;99.90;;;;;;10703807;27;20326;-87
2024/05/03 18:09:35;;;;;;;5.32;2.83;;;24.30;1.00;;;;;;10779066;27;20569;-86
2024/05/03 18:14:56;;;;;;;6.60;3.53;;;24.10;99.90;;;;;;10806812;27;20405;-86
2024/05/03 18:20:19;;;;;;;3.83;2.63;;;24.00;99.90;;;;;;10769740;27;20224;-87
2024/05/03 18:25:41;;;;;;;7.53;2.97;;;23.90;99.90;;;;;;10787871;27;20262;-86
2024/05/03 18:31:02;;;;;;;5.25;3.08;;;23.80;99.90;;;;;;10813792;27;20271;-88
2024/05/03 18:36:24;;;;;;;6.82;2.80;;;23.60;99.90;;;;;;10816441;27;20246;-86
2024/05/03 18:41:45;;;;;;;4.85;3.15;;;23.50;99.90;;;;;;10790217;27;20219;-85
2024/05/03 18:47:07;;;;;;;6.57;3.90;;;23.20;99.90;;;;;;10810431;27;20322;-85
2024/05/03 18:52:29;;;;;;;40.80;22.85;;;23.00;99.90;;;;;;10789008;27;20246;-85
2024/05/03 18:57:50;;;;;;;31.38;20.45;;;22.80;99.90;;;;;;10785106;27;20774;-85
2024/05/03 19:03:12;;;;;;;23.00;14.02;;;22.70;99.90;;;;;;10812182;27;20505;-85
2024/05/03 19:08:37;;;;;;;19.75;11.30;;;22.40;1.00;;;;;;10856036;27;20269;-85
2024/05/03 19:13:58;;;;;;;18.23;9.68;;;22.40;1.00;;;;;;10857345;27;20257;-85
2024/05/03 19:19:20;;;;;;;14.88;8.80;;;22.30;99.90;;;;;;10851886;27;20264;-85
2024/05/03 19:24:45;;;;;;;18.60;10.13;;;22.20;1.00;;;;;;10858052;27;20261;-86
2024/05/03 19:30:07;;;;;;;17.67;11.07;;;;;;;;;;10826122;27;20318;-85
2024/05/03 19:35:28;;;;;;;21.60;11.52;;;21.80;99.90;;;;;;10776584;27;20378;-85
2024/05/03 19:40:49;;;;;;;21.17;10.40;;;21.70;99.90;;;;;;10849048;27;20288;-85
2024/05/03 19:46:11;;;;;;;22.10;10.52;;;21.70;1.00;;;;;;10856826;27;20386;-85
2024/05/03 19:51:32;;;;;;;21.80;11.45;;;21.70;1.00;;;;;;10879227;27;20234;-86
2024/05/03 19:56:54;;;;;;;18.90;10.95;;;;;;;;;;10855560;27;20393;-85
2024/05/03 20:02:18;;;;;;;15.88;10.07;;;;;;;;;;10787315;27;20302;-85
2024/05/03 20:07:40;;;;;;;14.75;9.27;;;;;;;;;;10836468;27;20234;-86
2024/05/03 20:13:02;;;;;;;18.02;9.57;;;;;;;;;;10855981;27;20557;-86
2024/05/03 20:18:25;;;;;;;15.88;8.20;;;;;;;;;;10854251;27;20350;-85
2024/05/03 20:23:47;;;;;;;15.95;7.80;;;;;;;;;;10832926;27;20309;-85
2024/05/03 20:29:09;;;;;;;12.60;7.50;;;;;;;;;;10831476;27;20524;-85
2024/05/03 20:34:31;;;;;;;15.00;7.25;;;;;;;;;;10855552;27;20246;-85
2024/05/03 20:39:53;;;;;;;17.88;8.32;;;;;;;;;;10853807;27;20268;-85
2024/05/03 20:45:15;;;;;;;12.73;7.38;;;;;;;;;;10854645;27;20261;-85
2024/05/03 20:50:37;;;;;;;14.00;7.28;;;;;;;;;;10826118;27;20246;-85
2024/05/03 20:55:59;;;;;;;10.65;6.95;;;;;;;;;;10827692;27;20266;-85
2024/05/03 21:01:21;;;;;;;14.18;7.47;;;;;;;;;;10876767;27;20466;-85
2024/05/03 21:06:43;;;;;;;12.93;7.57;;;;;;;;;;10850180;27;20246;-85
2024/05/03 21:12:05;;;;;;;16.38;7.30;;;;;;;;;;10806599;27;20395;-85
2024/05/03 21:17:27;;;;;;;12.18;7.35;;;;;;;;;;10848060;27;20469;-85
2024/05/03 21:22:49;;;;;;;15.57;7.82;;;20.10;99.90;;;;;;10785385;27;20239;-85
2024/05/03 21:28:11;;;;;;;15.80;8.68;;;;;;;;;;10774990;27;20238;-85
2024/05/03 21:33:32;;;;;;;12.52;7.75;;;19.90;1.00;;;;;;10878107;27;20364;-85
2024/05/03 21:38:54;;;;;;;14.57;8.25;;;20.00;99.90;;;;;;10852366;27;20238;-86
2024/05/03 21:44:19;;;;;;;19.55;8.27;;;19.90;21.20;;;;;;10876550;27;20264;-84
2024/05/03 21:49:41;;;;;;;15.48;8.88;;;;;;;;;;10852499;27;20277;-85
2024/05/03 21:55:03;;;;;;;11.88;8.23;;;19.40;1.00;;;;;;10855910;27;20258;-85
2024/05/03 22:00:25;;;;;;;15.90;10.30;;;19.60;99.90;;;;;;10882530;27;20440;-85
2024/05/03 22:05:46;;;;;;;18.02;11.02;;;19.40;1.00;;;;;;10854678;27;20241;-85
2024/05/03 22:11:08;;;;;;;21.10;12.23;;;19.40;1.00;;;;;;10832769;27;20257;-85
2024/05/03 22:16:29;;;;;;;23.60;11.90;;;19.30;1.00;;;;;;10859299;27;20252;-84
2024/05/03 22:21:51;;;;;;;18.60;10.90;;;19.00;99.90;;;;;;10851814;27;20308;-84
2024/05/03 22:27:12;;;;;;;20.52;11.45;;;18.90;99.90;;;;;;10835799;27;20378;-85
2024/05/03 22:37:54;;;;;;;24.50;11.15;;;18.70;99.90;;;;;;10858257;27;20325;-83
2024/05/03 22:43:16;;;;;;;19.00;9.85;;;18.70;99.90;;;;;;10805066;27;20400;-85
2024/05/03 22:48:37;;;;;;;19.42;9.82;;;18.60;99.90;;;;;;10858689;27;20229;-85
2024/05/03 22:53:59;;;;;;;17.17;9.82;;;18.50;99.90;;;;;;10835679;27;20260;-85
2024/05/03 22:59:20;;;;;;;15.43;8.85;;;18.40;99.90;;;;;;10830705;27;20244;-87
2024/05/03 23:04:42;;;;;;;15.93;9.27;;;18.40;99.90;;;;;;10856555;27;20373;-85
2024/05/03 23:10:07;;;;;;;17.30;8.55;;;18.30;99.90;;;;;;10779819;27;20295;-86
2024/05/03 23:15:29;;;;;;;13.32;9.20;;;18.10;99.90;;;;;;10740367;27;20258;-85
2024/05/03 23:20:51;;;;;;;11.40;7.97;;;18.10;99.90;;;;;;10752781;27;20312;-85
2024/05/03 23:26:13;;;;;;;16.05;8.55;;;18.00;99.90;;;;;;10829453;27;20252;-85
2024/05/03 23:31:41;;;;;;;12.27;7.88;;;17.90;99.90;;;;;;10855580;27;20241;-85
2024/05/03 23:37:03;;;;;;;11.50;7.88;;;17.90;99.90;;;;;;10852714;27;20260;-84
2024/05/03 23:42:24;;;;;;;9.68;6.93;;;17.80;99.90;;;;;;10855430;27;20333;-86
2024/05/03 23:47:46;;;;;;;10.10;7.47;;;17.80;99.90;;;;;;10788320;27;20332;-85
2024/05/03 23:53:09;;;;;;;12.60;7.20;;;17.80;99.90;;;;;;10824059;27;20324;-87
2024/05/03 23:58:30;;;;;;;13.82;8.00;;;17.70;99.90;;;;;;10880091;27;20453;-85
